sensor_id;sensor_type;location;lat;lon;timestamp;pressure;altitude;pressure_sealevel;temperature;humidity
63395;BME280;49531;-34.520;150.798;2023-04-28T00:01:44;100729.88;;;23.62;50.86
63395;BME280;49531;-34.520;150.798;2023-04-28T00:04:12;100729.31;;;23.65;51.12
63395;BME280;49531;-34.520;150.798;2023-04-28T00:06:39;100729.56;;;23.69;51.11
63395;BME280;49531;-34.520;150.798;2023-04-28T00:09:06;100723.53;;;23.72;51.14
63395;BME280;49531;-34.520;150.798;2023-04-28T00:11:37;100717.78;;;23.78;50.75
63395;BME280;49531;-34.520;150.798;2023-04-28T00:14:04;100704.72;;;23.75;50.84
63395;BME280;49531;-34.520;150.798;2023-04-28T00:16:32;100712.84;;;23.85;50.92
63395;BME280;49531;-34.520;150.798;2023-04-28T00:18:59;100715.53;;;23.90;50.38
63395;BME280;49531;-34.520;150.798;2023-04-28T00:21:26;100712.53;;;23.92;50.31
63395;BME280;49531;-34.520;150.798;2023-04-28T00:23:54;100698.59;;;23.93;50.54
63395;BME280;49531;-34.520;150.798;2023-04-28T00:26:21;100694.78;;;23.94;50.65
63395;BME280;49531;-34.520;150.798;2023-04-28T00:28:49;100682.47;;;23.97;50.09
63395;BME280;49531;-34.520;150.798;2023-04-28T00:31:16;100678.66;;;23.98;50.15
63395;BME280;49531;-34.520;150.798;2023-04-28T00:33:44;100689.47;;;24.08;50.13
63395;BME280;49531;-34.520;150.798;2023-04-28T00:36:11;100677.19;;;24.06;49.50
63395;BME280;49531;-34.520;150.798;2023-04-28T00:38:38;100669.53;;;24.08;49.50
63395;BME280;49531;-34.520;150.798;2023-04-28T00:41:05;100679.84;;;24.16;49.42
63395;BME280;49531;-34.520;150.798;2023-04-28T00:43:46;100671.66;;;24.16;49.53
63395;BME280;49531;-34.520;150.798;2023-04-28T00:46:21;100666.16;;;24.21;49.68
63395;BME280;49531;-34.520;150.798;2023-04-28T00:48:50;100662.34;;;24.22;49.24
63395;BME280;49531;-34.520;150.798;2023-04-28T00:51:17;100660.69;;;24.26;49.61
63395;BME280;49531;-34.520;150.798;2023-04-28T00:53:45;100656.56;;;24.29;49.71
63395;BME280;49531;-34.520;150.798;2023-04-28T00:56:15;100647.25;;;24.35;49.77
63395;BME280;49531;-34.520;150.798;2023-04-28T00:58:43;100627.59;;;24.33;49.45
63395;BME280;49531;-34.520;150.798;2023-04-28T01:01:10;100630.75;;;24.45;49.26
63395;BME280;49531;-34.520;150.798;2023-04-28T01:03:39;100634.00;;;24.47;49.23
63395;BME280;49531;-34.520;150.798;2023-04-28T01:06:08;100630.97;;;24.48;49.36
63395;BME280;49531;-34.520;150.798;2023-04-28T01:08:37;100619.53;;;24.46;49.11
63395;BME280;49531;-34.520;150.798;2023-04-28T01:11:05;100610.22;;;24.47;48.71
63395;BME280;49531;-34.520;150.798;2023-04-28T01:13:32;100596.56;;;24.47;48.65
63395;BME280;49531;-34.520;150.798;2023-04-28T01:16:00;100623.25;;;24.55;48.29
63395;BME280;49531;-34.520;150.798;2023-04-28T01:18:27;100612.34;;;24.55;47.77
63395;BME280;49531;-34.520;150.798;2023-04-28T01:20:55;100604.66;;;24.57;47.62
63395;BME280;49531;-34.520;150.798;2023-04-28T01:23:22;100604.38;;;24.59;48.43
63395;BME280;49531;-34.520;150.798;2023-04-28T01:25:49;100594.44;;;24.68;48.05
63395;BME280;49531;-34.520;150.798;2023-04-28T01:28:16;100588.75;;;24.65;48.32
63395;BME280;49531;-34.520;150.798;2023-04-28T01:30:43;100587.59;;;24.71;48.07
63395;BME280;49531;-34.520;150.798;2023-04-28T01:33:11;100584.03;;;24.70;48.06
63395;BME280;49531;-34.520;150.798;2023-04-28T01:35:38;100574.75;;;24.71;48.52
63395;BME280;49531;-34.520;150.798;2023-04-28T01:38:05;100577.31;;;24.81;47.88
63395;BME280;49531;-34.520;150.798;2023-04-28T01:40:33;100565.09;;;24.79;47.90
63395;BME280;49531;-34.520;150.798;2023-04-28T01:43:00;100565.81;;;24.84;48.22
63395;BME280;49531;-34.520;150.798;2023-04-28T01:45:27;100555.69;;;24.85;48.11
63395;BME280;49531;-34.520;150.798;2023-04-28T01:47:54;100539.69;;;24.78;47.37
63395;BME280;49531;-34.520;150.798;2023-04-28T01:50:21;100552.59;;;24.91;47.59
63395;BME280;49531;-34.520;150.798;2023-04-28T01:52:48;100554.53;;;24.91;47.86
63395;BME280;49531;-34.520;150.798;2023-04-28T01:55:16;100543.59;;;24.91;47.92
63395;BME280;49531;-34.520;150.798;2023-04-28T01:57:43;100526.63;;;24.94;47.73
63395;BME280;49531;-34.520;150.798;2023-04-28T02:00:10;100531.53;;;24.97;48.07
63395;BME280;49531;-34.520;150.798;2023-04-28T02:02:37;100511.91;;;24.90;48.12
63395;BME280;49531;-34.520;150.798;2023-04-28T02:05:05;100513.22;;;24.98;48.12
63395;BME280;49531;-34.520;150.798;2023-04-28T02:07:33;100512.94;;;24.94;47.86
63395;BME280;49531;-34.520;150.798;2023-04-28T02:10:00;100503.13;;;24.93;47.92
63395;BME280;49531;-34.520;150.798;2023-04-28T02:12:27;100504.66;;;25.04;47.88
63395;BME280;49531;-34.520;150.798;2023-04-28T02:14:54;100493.28;;;24.97;48.20
63395;BME280;49531;-34.520;150.798;2023-04-28T02:17:21;100476.28;;;25.00;47.85
63395;BME280;49531;-34.520;150.798;2023-04-28T02:19:54;100483.59;;;25.05;47.69
63395;BME280;49531;-34.520;150.798;2023-04-28T02:22:21;100472.88;;;25.08;47.55
63395;BME280;49531;-34.520;150.798;2023-04-28T02:24:49;100478.06;;;25.10;47.37
63395;BME280;49531;-34.520;150.798;2023-04-28T02:27:17;100443.50;;;25.00;47.30
63395;BME280;49531;-34.520;150.798;2023-04-28T02:29:44;100466.22;;;25.14;47.48
63395;BME280;49531;-34.520;150.798;2023-04-28T02:32:11;100461.56;;;25.15;47.28
63395;BME280;49531;-34.520;150.798;2023-04-28T02:34:38;100447.78;;;25.06;47.28
63395;BME280;49531;-34.520;150.798;2023-04-28T02:37:06;100453.75;;;25.08;46.99
63395;BME280;49531;-34.520;150.798;2023-04-28T02:39:34;100443.94;;;25.07;47.45
63395;BME280;49531;-34.520;150.798;2023-04-28T02:42:01;100442.53;;;25.10;47.34
63395;BME280;49531;-34.520;150.798;2023-04-28T02:44:30;100438.91;;;25.14;47.08
63395;BME280;49531;-34.520;150.798;2023-04-28T02:46:57;100438.38;;;25.12;47.12
63395;BME280;49531;-34.520;150.798;2023-04-28T02:49:25;100437.78;;;25.15;47.52
63395;BME280;49531;-34.520;150.798;2023-04-28T02:51:53;100422.06;;;25.07;47.67
63395;BME280;49531;-34.520;150.798;2023-04-28T02:54:20;100411.94;;;25.08;47.57
63395;BME280;49531;-34.520;150.798;2023-04-28T02:56:54;100424.13;;;25.15;47.75
63395;BME280;49531;-34.520;150.798;2023-04-28T02:59:23;100419.47;;;25.16;48.10
63395;BME280;49531;-34.520;150.798;2023-04-28T03:01:51;100405.28;;;25.14;48.03
63395;BME280;49531;-34.520;150.798;2023-04-28T03:04:18;100405.69;;;25.21;47.99
63395;BME280;49531;-34.520;150.798;2023-04-28T03:06:45;100400.03;;;25.17;48.17
63395;BME280;49531;-34.520;150.798;2023-04-28T03:09:12;100397.78;;;25.19;48.16
63395;BME280;49531;-34.520;150.798;2023-04-28T03:11:40;100368.00;;;25.04;47.86
63395;BME280;49531;-34.520;150.798;2023-04-28T03:14:08;100385.75;;;25.20;48.13
63395;BME280;49531;-34.520;150.798;2023-04-28T03:16:35;100387.88;;;25.23;47.79
63395;BME280;49531;-34.520;150.798;2023-04-28T03:19:02;100360.75;;;25.13;47.99
63395;BME280;49531;-34.520;150.798;2023-04-28T03:21:30;100367.72;;;25.19;47.75
63395;BME280;49531;-34.520;150.798;2023-04-28T03:23:57;100377.75;;;25.24;47.88
63395;BME280;49531;-34.520;150.798;2023-04-28T03:26:24;100374.72;;;25.25;47.92
63395;BME280;49531;-34.520;150.798;2023-04-28T03:28:51;100383.72;;;25.26;48.12
63395;BME280;49531;-34.520;150.798;2023-04-28T03:31:19;100372.50;;;25.27;47.85
63395;BME280;49531;-34.520;150.798;2023-04-28T03:33:46;100367.63;;;25.24;47.81
63395;BME280;49531;-34.520;150.798;2023-04-28T03:36:13;100357.41;;;25.16;48.23
63395;BME280;49531;-34.520;150.798;2023-04-28T03:38:40;100364.81;;;25.30;47.59
63395;BME280;49531;-34.520;150.798;2023-04-28T03:41:08;100353.88;;;25.30;47.97
63395;BME280;49531;-34.520;150.798;2023-04-28T03:43:36;100343.53;;;25.26;47.78
63395;BME280;49531;-34.520;150.798;2023-04-28T03:46:04;100345.69;;;25.30;47.76
63395;BME280;49531;-34.520;150.798;2023-04-28T03:48:31;100356.53;;;25.35;48.10
63395;BME280;49531;-34.520;150.798;2023-04-28T03:50:58;100341.81;;;25.31;47.94
63395;BME280;49531;-34.520;150.798;2023-04-28T03:53:25;100340.22;;;25.30;47.97
63395;BME280;49531;-34.520;150.798;2023-04-28T03:55:52;100344.69;;;25.39;47.61
63395;BME280;49531;-34.520;150.798;2023-04-28T03:58:20;100311.25;;;25.29;47.31
63395;BME280;49531;-34.520;150.798;2023-04-28T04:00:47;100337.78;;;25.42;47.57
63395;BME280;49531;-34.520;150.798;2023-04-28T04:03:14;100338.31;;;25.44;47.66
63395;BME280;49531;-34.520;150.798;2023-04-28T04:05:41;100328.19;;;25.44;47.24
63395;BME280;49531;-34.520;150.798;2023-04-28T04:08:08;100328.91;;;25.50;47.13
63395;BME280;49531;-34.520;150.798;2023-04-28T04:10:36;100318.25;;;25.48;46.96
63395;BME280;49531;-34.520;150.798;2023-04-28T04:13:03;100315.22;;;25.50;46.51
63395;BME280;49531;-34.520;150.798;2023-04-28T04:15:31;100309.75;;;25.50;46.63
63395;BME280;49531;-34.520;150.798;2023-04-28T04:17:58;100308.53;;;25.56;46.69
63395;BME280;49531;-34.520;150.798;2023-04-28T04:20:25;100307.94;;;25.73;47.09
63395;BME280;49531;-34.520;150.798;2023-04-28T04:22:52;100308.63;;;25.78;46.77
63395;BME280;49531;-34.520;150.798;2023-04-28T04:25:20;100305.50;;;25.71;47.05
63395;BME280;49531;-34.520;150.798;2023-04-28T04:27:47;100302.66;;;25.76;47.04
63395;BME280;49531;-34.520;150.798;2023-04-28T04:30:14;100304.78;;;25.79;46.62
63395;BME280;49531;-34.520;150.798;2023-04-28T04:32:42;100316.13;;;25.86;46.33
63395;BME280;49531;-34.520;150.798;2023-04-28T04:35:09;100295.78;;;25.79;45.96
63395;BME280;49531;-34.520;150.798;2023-04-28T04:37:36;100292.84;;;25.75;45.93
63395;BME280;49531;-34.520;150.798;2023-04-28T04:40:03;100271.75;;;25.62;45.89
63395;BME280;49531;-34.520;150.798;2023-04-28T04:42:31;100300.22;;;25.75;46.14
63395;BME280;49531;-34.520;150.798;2023-04-28T04:44:58;100289.59;;;25.73;45.94
63395;BME280;49531;-34.520;150.798;2023-04-28T04:47:26;100285.84;;;25.83;45.66
63395;BME280;49531;-34.520;150.798;2023-04-28T04:49:53;100269.84;;;25.76;45.81
63395;BME280;49531;-34.520;150.798;2023-04-28T04:52:21;100287.66;;;25.87;45.73
63395;BME280;49531;-34.520;150.798;2023-04-28T04:54:49;100282.19;;;25.87;46.44
63395;BME280;49531;-34.520;150.798;2023-04-28T04:57:16;100287.44;;;25.98;45.69
63395;BME280;49531;-34.520;150.798;2023-04-28T04:59:43;100271.25;;;25.87;46.13
63395;BME280;49531;-34.520;150.798;2023-04-28T05:02:11;100277.91;;;25.95;46.08
63395;BME280;49531;-34.520;150.798;2023-04-28T05:04:38;100279.34;;;25.92;46.60
63395;BME280;49531;-34.520;150.798;2023-04-28T05:07:06;100274.97;;;25.91;46.78
63395;BME280;49531;-34.520;150.798;2023-04-28T05:09:33;100288.06;;;25.95;46.58
63395;BME280;49531;-34.520;150.798;2023-04-28T05:12:00;100270.22;;;25.83;46.80
63395;BME280;49531;-34.520;150.798;2023-04-28T05:14:27;100276.09;;;25.90;46.86
63395;BME280;49531;-34.520;150.798;2023-04-28T05:16:55;100268.00;;;25.85;46.99
63395;BME280;49531;-34.520;150.798;2023-04-28T05:19:23;100270.44;;;25.87;47.43
63395;BME280;49531;-34.520;150.798;2023-04-28T05:21:50;100268.81;;;25.86;47.50
63395;BME280;49531;-34.520;150.798;2023-04-28T05:24:21;100278.03;;;25.90;47.38
63395;BME280;49531;-34.520;150.798;2023-04-28T05:26:50;100271.25;;;25.87;46.92
63395;BME280;49531;-34.520;150.798;2023-04-28T05:29:20;100271.75;;;25.89;47.25
63395;BME280;49531;-34.520;150.798;2023-04-28T05:31:47;100254.94;;;25.82;47.36
63395;BME280;49531;-34.520;150.798;2023-04-28T05:34:14;100277.09;;;25.95;47.33
63395;BME280;49531;-34.520;150.798;2023-04-28T05:36:42;100273.38;;;25.90;47.08
63395;BME280;49531;-34.520;150.798;2023-04-28T05:39:10;100255.94;;;25.86;47.37
63395;BME280;49531;-34.520;150.798;2023-04-28T05:41:37;100266.16;;;25.95;47.41
63395;BME280;49531;-34.520;150.798;2023-04-28T05:44:04;100253.50;;;25.85;47.59
63395;BME280;49531;-34.520;150.798;2023-04-28T05:46:31;100274.06;;;25.96;47.91
63395;BME280;49531;-34.520;150.798;2023-04-28T05:48:59;100249.34;;;25.87;47.89
63395;BME280;49531;-34.520;150.798;2023-04-28T05:51:27;100268.59;;;25.96;48.06
63395;BME280;49531;-34.520;150.798;2023-04-28T05:53:54;100265.34;;;25.94;48.19
63395;BME280;49531;-34.520;150.798;2023-04-28T05:56:22;100254.81;;;25.87;48.18
63395;BME280;49531;-34.520;150.798;2023-04-28T05:58:49;100265.34;;;25.94;48.32
63395;BME280;49531;-34.520;150.798;2023-04-28T06:01:16;100244.69;;;25.88;48.31
63395;BME280;49531;-34.520;150.798;2023-04-28T06:03:44;100250.34;;;25.91;48.32
63395;BME280;49531;-34.520;150.798;2023-04-28T06:06:11;100236.78;;;25.86;48.54
63395;BME280;49531;-34.520;150.798;2023-04-28T06:08:38;100257.66;;;25.96;48.44
63395;BME280;49531;-34.520;150.798;2023-04-28T06:11:06;100247.13;;;25.89;48.41
63395;BME280;49531;-34.520;150.798;2023-04-28T06:13:33;100249.75;;;25.95;48.56
63395;BME280;49531;-34.520;150.798;2023-04-28T06:16:00;100242.56;;;25.85;48.75
63395;BME280;49531;-34.520;150.798;2023-04-28T06:18:29;100243.88;;;25.87;48.77
63395;BME280;49531;-34.520;150.798;2023-04-28T06:20:58;100231.81;;;25.88;48.84
63395;BME280;49531;-34.520;150.798;2023-04-28T06:23:26;100244.13;;;26.00;48.87
63395;BME280;49531;-34.520;150.798;2023-04-28T06:25:53;100223.72;;;25.83;49.33
63395;BME280;49531;-34.520;150.798;2023-04-28T06:28:21;100244.78;;;25.97;49.26
63395;BME280;49531;-34.520;150.798;2023-04-28T06:30:48;100237.47;;;25.92;49.28
63395;BME280;49531;-34.520;150.798;2023-04-28T06:33:15;100239.00;;;25.98;49.44
63395;BME280;49531;-34.520;150.798;2023-04-28T06:35:42;100227.66;;;25.91;49.78
63395;BME280;49531;-34.520;150.798;2023-04-28T06:38:09;100227.22;;;25.98;49.76
63395;BME280;49531;-34.520;150.798;2023-04-28T06:40:36;100229.66;;;25.99;49.84
63395;BME280;49531;-34.520;150.798;2023-04-28T06:43:06;100217.41;;;25.97;49.60
63395;BME280;49531;-34.520;150.798;2023-04-28T06:45:33;100211.53;;;25.89;49.89
63395;BME280;49531;-34.520;150.798;2023-04-28T06:48:00;100214.16;;;25.95;49.68
63395;BME280;49531;-34.520;150.798;2023-04-28T06:50:27;100228.34;;;25.97;50.04
63395;BME280;49531;-34.520;150.798;2023-04-28T06:52:55;100206.56;;;25.91;50.05
63395;BME280;49531;-34.520;150.798;2023-04-28T06:55:24;100202.34;;;25.85;50.14
63395;BME280;49531;-34.520;150.798;2023-04-28T06:57:52;100207.00;;;25.85;49.74
63395;BME280;49531;-34.520;150.798;2023-04-28T07:00:19;100216.50;;;25.87;49.50
63395;BME280;49531;-34.520;150.798;2023-04-28T07:02:46;100221.38;;;25.90;49.97
63395;BME280;49531;-34.520;150.798;2023-04-28T07:05:16;100222.88;;;25.97;49.73
63395;BME280;49531;-34.520;150.798;2023-04-28T07:07:44;100207.81;;;25.85;49.81
63395;BME280;49531;-34.520;150.798;2023-04-28T07:10:11;100213.47;;;25.89;49.68
63395;BME280;49531;-34.520;150.798;2023-04-28T07:12:40;100232.19;;;25.96;49.66
63395;BME280;49531;-34.520;150.798;2023-04-28T07:15:08;100216.22;;;25.89;49.63
63395;BME280;49531;-34.520;150.798;2023-04-28T07:17:35;100226.22;;;25.94;49.73
63395;BME280;49531;-34.520;150.798;2023-04-28T07:20:03;100214.41;;;25.84;49.96
63395;BME280;49531;-34.520;150.798;2023-04-28T07:22:30;100236.06;;;25.95;49.68
63395;BME280;49531;-34.520;150.798;2023-04-28T07:24:58;100230.19;;;25.87;50.57
63395;BME280;49531;-34.520;150.798;2023-04-28T07:27:25;100224.22;;;25.85;50.67
63395;BME280;49531;-34.520;150.798;2023-04-28T07:29:52;100226.84;;;25.90;50.43
63395;BME280;49531;-34.520;150.798;2023-04-28T07:32:19;100217.31;;;25.88;50.86
63395;BME280;49531;-34.520;150.798;2023-04-28T07:34:46;100220.94;;;25.97;50.69
63395;BME280;49531;-34.520;150.798;2023-04-28T07:37:14;100231.25;;;26.00;50.36
63395;BME280;49531;-34.520;150.798;2023-04-28T07:39:41;100230.00;;;26.06;50.37
63395;BME280;49531;-34.520;150.798;2023-04-28T07:42:09;100220.38;;;26.09;50.43
63395;BME280;49531;-34.520;150.798;2023-04-28T07:44:36;100223.81;;;26.14;50.14
63395;BME280;49531;-34.520;150.798;2023-04-28T07:47:03;100229.16;;;26.19;50.22
63395;BME280;49531;-34.520;150.798;2023-04-28T07:49:31;100217.03;;;26.12;50.12
63395;BME280;49531;-34.520;150.798;2023-04-28T07:51:58;100231.78;;;26.24;50.10
63395;BME280;49531;-34.520;150.798;2023-04-28T07:54:25;100231.47;;;26.26;49.90
63395;BME280;49531;-34.520;150.798;2023-04-28T07:56:52;100221.03;;;26.28;50.11
63395;BME280;49531;-34.520;150.798;2023-04-28T07:59:20;100210.50;;;26.21;50.04
63395;BME280;49531;-34.520;150.798;2023-04-28T08:01:47;100217.47;;;26.28;50.17
63395;BME280;49531;-34.520;150.798;2023-04-28T08:04:14;100187.91;;;26.16;50.09
63395;BME280;49531;-34.520;150.798;2023-04-28T08:06:41;100205.72;;;26.27;50.03
63395;BME280;49531;-34.520;150.798;2023-04-28T08:09:08;100193.06;;;26.17;50.06
63395;BME280;49531;-34.520;150.798;2023-04-28T08:11:35;100186.41;;;26.10;50.12
63395;BME280;49531;-34.520;150.798;2023-04-28T08:14:03;100204.53;;;26.19;49.98
63395;BME280;49531;-34.520;150.798;2023-04-28T08:16:31;100179.31;;;26.09;49.91
63395;BME280;49531;-34.520;150.798;2023-04-28T08:18:59;100200.97;;;26.19;50.20
63395;BME280;49531;-34.520;150.798;2023-04-28T08:21:26;100214.34;;;26.20;50.30
63395;BME280;49531;-34.520;150.798;2023-04-28T08:23:53;100215.16;;;26.21;50.21
63395;BME280;49531;-34.520;150.798;2023-04-28T08:26:21;100219.53;;;26.22;50.07
63395;BME280;49531;-34.520;150.798;2023-04-28T08:28:50;100226.13;;;26.21;50.07
63395;BME280;49531;-34.520;150.798;2023-04-28T08:31:17;100205.25;;;26.11;49.96
63395;BME280;49531;-34.520;150.798;2023-04-28T08:33:44;100223.31;;;26.12;50.23
63395;BME280;49531;-34.520;150.798;2023-04-28T08:36:14;100217.13;;;26.07;50.41
63395;BME280;49531;-34.520;150.798;2023-04-28T08:38:41;100211.47;;;26.03;50.55
63395;BME280;49531;-34.520;150.798;2023-04-28T08:41:09;100202.28;;;25.99;50.64
63395;BME280;49531;-34.520;150.798;2023-04-28T08:43:36;100212.97;;;26.09;50.27
63395;BME280;49531;-34.520;150.798;2023-04-28T08:46:06;100231.84;;;26.11;50.13
63395;BME280;49531;-34.520;150.798;2023-04-28T08:48:40;100221.38;;;26.13;50.03
63395;BME280;49531;-34.520;150.798;2023-04-28T08:51:09;100216.53;;;26.10;50.35
63395;BME280;49531;-34.520;150.798;2023-04-28T08:53:44;100230.09;;;26.15;50.36
63395;BME280;49531;-34.520;150.798;2023-04-28T08:56:17;100223.13;;;26.09;50.34
63395;BME280;49531;-34.520;150.798;2023-04-28T08:58:44;100225.72;;;26.14;49.97
63395;BME280;49531;-34.520;150.798;2023-04-28T09:01:12;100232.81;;;26.15;50.06
63395;BME280;49531;-34.520;150.798;2023-04-28T09:03:40;100227.16;;;26.11;49.99
63395;BME280;49531;-34.520;150.798;2023-04-28T09:06:07;100225.22;;;26.12;50.12
63395;BME280;49531;-34.520;150.798;2023-04-28T09:08:34;100233.63;;;26.15;49.99
63395;BME280;49531;-34.520;150.798;2023-04-28T09:11:07;100242.47;;;26.12;50.52
63395;BME280;49531;-34.520;150.798;2023-04-28T09:13:34;100239.94;;;26.16;50.07
63395;BME280;49531;-34.520;150.798;2023-04-28T09:16:02;100243.59;;;26.11;50.54
63395;BME280;49531;-34.520;150.798;2023-04-28T09:18:30;100246.63;;;26.10;50.42
63395;BME280;49531;-34.520;150.798;2023-04-28T09:21:05;100237.09;;;26.07;50.38
63395;BME280;49531;-34.520;150.798;2023-04-28T09:23:33;100241.28;;;26.05;50.38
63395;BME280;49531;-34.520;150.798;2023-04-28T09:26:03;100247.88;;;26.04;50.62
63395;BME280;49531;-34.520;150.798;2023-04-28T09:28:32;100245.13;;;26.04;50.81
63395;BME280;49531;-34.520;150.798;2023-04-28T09:31:00;100245.63;;;26.06;50.59
63395;BME280;49531;-34.520;150.798;2023-04-28T09:33:28;100231.09;;;25.97;50.48
63395;BME280;49531;-34.520;150.798;2023-04-28T09:35:56;100247.06;;;26.03;50.38
63395;BME280;49531;-34.520;150.798;2023-04-28T09:38:23;100223.50;;;25.94;50.74
63395;BME280;49531;-34.520;150.798;2023-04-28T09:40:57;100236.91;;;26.04;50.71
63395;BME280;49531;-34.520;150.798;2023-04-28T09:43:29;100240.16;;;26.06;50.44
63395;BME280;49531;-34.520;150.798;2023-04-28T09:45:58;100230.63;;;26.03;50.70
63395;BME280;49531;-34.520;150.798;2023-04-28T09:48:31;100238.84;;;26.03;50.86
63395;BME280;49531;-34.520;150.798;2023-04-28T09:51:00;100227.72;;;26.00;50.32
63395;BME280;49531;-34.520;150.798;2023-04-28T09:53:28;100217.63;;;25.86;50.63
63395;BME280;49531;-34.520;150.798;2023-04-28T09:55:58;100235.28;;;26.03;50.47
63395;BME280;49531;-34.520;150.798;2023-04-28T09:58:26;100239.97;;;26.02;50.36
63395;BME280;49531;-34.520;150.798;2023-04-28T10:00:56;100233.31;;;25.95;50.66
63395;BME280;49531;-34.520;150.798;2023-04-28T10:03:26;100241.38;;;26.00;50.79
63395;BME280;49531;-34.520;150.798;2023-04-28T10:05:57;100236.41;;;26.02;50.48
63395;BME280;49531;-34.520;150.798;2023-04-28T10:08:25;100234.00;;;26.00;50.44
63395;BME280;49531;-34.520;150.798;2023-04-28T10:10:53;100235.91;;;26.00;50.36
63395;BME280;49531;-34.520;150.798;2023-04-28T10:13:22;100241.38;;;26.00;50.60
63395;BME280;49531;-34.520;150.798;2023-04-28T10:15:50;100237.78;;;25.90;50.53
63395;BME280;49531;-34.520;150.798;2023-04-28T10:18:23;100249.75;;;25.95;50.45
63395;BME280;49531;-34.520;150.798;2023-04-28T10:20:56;100242.44;;;25.90;50.38
63395;BME280;49531;-34.520;150.798;2023-04-28T10:27:01;100253.19;;;25.86;50.77
63395;BME280;49531;-34.520;150.798;2023-04-28T10:29:30;100246.09;;;25.85;50.73
63395;BME280;49531;-34.520;150.798;2023-04-28T10:32:20;100255.25;;;25.81;50.52
63395;BME280;49531;-34.520;150.798;2023-04-28T10:34:48;100233.16;;;25.77;50.29
63395;BME280;49531;-34.520;150.798;2023-04-28T10:37:15;100249.16;;;25.84;50.65
63395;BME280;49531;-34.520;150.798;2023-04-28T10:42:50;100237.00;;;25.76;50.50
63395;BME280;49531;-34.520;150.798;2023-04-28T10:48:16;100228.91;;;25.71;50.57
63395;BME280;49531;-34.520;150.798;2023-04-28T10:54:06;100216.38;;;25.56;50.52
63395;BME280;49531;-34.520;150.798;2023-04-28T10:56:33;100232.06;;;25.65;50.44
63395;BME280;49531;-34.520;150.798;2023-04-28T10:59:24;100226.91;;;25.49;50.42
63395;BME280;49531;-34.520;150.798;2023-04-28T11:01:52;100245.50;;;25.61;50.71
63395;BME280;49531;-34.520;150.798;2023-04-28T11:04:20;100242.91;;;25.56;50.48
63395;BME280;49531;-34.520;150.798;2023-04-28T11:07:08;100235.41;;;25.48;50.46
63395;BME280;49531;-34.520;150.798;2023-04-28T11:09:50;100252.81;;;25.52;50.48
63395;BME280;49531;-34.520;150.798;2023-04-28T11:12:17;100234.50;;;25.39;50.67
63395;BME280;49531;-34.520;150.798;2023-04-28T11:14:45;100237.63;;;25.46;50.61
63395;BME280;49531;-34.520;150.798;2023-04-28T11:17:12;100252.44;;;25.45;50.88
63395;BME280;49531;-34.520;150.798;2023-04-28T11:19:43;100236.72;;;25.37;50.47
63395;BME280;49531;-34.520;150.798;2023-04-28T11:22:18;100248.06;;;25.44;50.44
63395;BME280;49531;-34.520;150.798;2023-04-28T11:25:03;100246.56;;;25.38;50.70
63395;BME280;49531;-34.520;150.798;2023-04-28T11:27:31;100242.72;;;25.39;50.47
63395;BME280;49531;-34.520;150.798;2023-04-28T11:29:59;100234.09;;;25.32;50.69
63395;BME280;49531;-34.520;150.798;2023-04-28T11:32:30;100247.38;;;25.38;50.83
63395;BME280;49531;-34.520;150.798;2023-04-28T11:34:58;100239.88;;;25.30;50.58
63395;BME280;49531;-34.520;150.798;2023-04-28T11:37:25;100231.97;;;25.29;50.52
63395;BME280;49531;-34.520;150.798;2023-04-28T11:39:52;100226.00;;;25.26;50.72
63395;BME280;49531;-34.520;150.798;2023-04-28T11:42:20;100226.50;;;25.29;50.39
63395;BME280;49531;-34.520;150.798;2023-04-28T11:44:52;100227.63;;;25.27;50.79
63395;BME280;49531;-34.520;150.798;2023-04-28T11:47:30;100212.72;;;25.20;50.62
63395;BME280;49531;-34.520;150.798;2023-04-28T11:49:58;100219.81;;;25.21;50.73
63395;BME280;49531;-34.520;150.798;2023-04-28T11:52:26;100207.59;;;25.18;50.81
63395;BME280;49531;-34.520;150.798;2023-04-28T11:54:54;100203.56;;;25.16;50.52
63395;BME280;49531;-34.520;150.798;2023-04-28T11:57:24;100223.88;;;25.23;50.59
63395;BME280;49531;-34.520;150.798;2023-04-28T11:59:51;100216.69;;;25.14;50.53
63395;BME280;49531;-34.520;150.798;2023-04-28T12:02:26;100218.53;;;25.18;50.12
63395;BME280;49531;-34.520;150.798;2023-04-28T12:04:55;100199.00;;;25.11;50.29
63395;BME280;49531;-34.520;150.798;2023-04-28T12:07:22;100209.53;;;25.18;50.18
63395;BME280;49531;-34.520;150.798;2023-04-28T12:10:12;100214.19;;;25.17;50.29
63395;BME280;49531;-34.520;150.798;2023-04-28T12:12:42;100205.47;;;25.15;50.10
63395;BME280;49531;-34.520;150.798;2023-04-28T12:15:09;100198.47;;;25.09;50.20
63395;BME280;49531;-34.520;150.798;2023-04-28T12:17:39;100196.34;;;25.06;50.07
63395;BME280;49531;-34.520;150.798;2023-04-28T12:20:10;100210.53;;;25.08;50.02
63395;BME280;49531;-34.520;150.798;2023-04-28T12:22:46;100204.03;;;25.04;50.13
63395;BME280;49531;-34.520;150.798;2023-04-28T12:25:15;100210.72;;;24.98;49.94
63395;BME280;49531;-34.520;150.798;2023-04-28T12:27:59;100184.38;;;24.88;49.82
63395;BME280;49531;-34.520;150.798;2023-04-28T12:30:32;100203.63;;;24.97;49.78
63395;BME280;49531;-34.520;150.798;2023-04-28T12:32:59;100213.97;;;25.00;50.03
63395;BME280;49531;-34.520;150.798;2023-04-28T12:35:28;100211.53;;;24.99;50.07
63395;BME280;49531;-34.520;150.798;2023-04-28T12:37:56;100201.78;;;24.92;49.96
63395;BME280;49531;-34.520;150.798;2023-04-28T12:40:24;100200.97;;;24.92;49.57